Time;durP1;ratioP1;P1;durP2;ratioP2;P2;SDS_P1;SDS_P2;PMS_P1;PMS_P2;Temp;Humidity;BMP_temperature;BMP_pressure;BME280_temperature;BME280_humidity;BME280_pressure;Samples;Min_cycle;Max_cycle;Signal;HPM_P1;HPM_P2
2023/05/10 00:01:47;;;;;;;6.80;5.97;;;;;;;8.55;100.00;62874.63;5015858;28;20250;-73
2023/05/10 00:04:15;;;;;;;8.82;7.05;;;;;;;8.51;100.00;62876.09;5022923;28;20207;-74
2023/05/10 00:06:42;;;;;;;8.52;7.53;;;;;;;8.45;100.00;62869.38;5024848;28;20289;-72
2023/05/10 00:09:10;;;;;;;7.82;6.55;;;;;;;8.45;100.00;62864.31;5023843;28;20204;-73
2023/05/10 00:11:37;;;;;;;8.32;7.47;;;;;;;8.37;100.00;62863.66;5022174;28;20314;-73
2023/05/10 00:14:04;;;;;;;7.57;6.78;;;;;;;8.37;100.00;62864.16;5024632;28;20206;-73
2023/05/10 00:16:31;;;;;;;7.05;6.45;;;;;;;8.39;100.00;62858.63;5024588;28;20290;-75
2023/05/10 00:18:59;;;;;;;10.00;7.07;;;;;;;8.45;100.00;62864.31;5022397;28;20281;-73
2023/05/10 00:21:28;;;;;;;7.85;7.05;;;;;;;8.45;100.00;62869.91;5022320;28;20289;-73
2023/05/10 00:23:55;;;;;;;8.52;7.43;;;;;;;8.49;100.00;62876.56;5023268;28;20203;-74
2023/05/10 00:26:22;;;;;;;10.13;7.82;;;;;;;8.55;100.00;62879.69;5024674;28;20230;-75
2023/05/10 00:28:49;;;;;;;9.63;7.28;;;;;;;8.48;100.00;62869.94;5021672;28;20199;-73
2023/05/10 00:31:16;;;;;;;8.50;7.65;;;;;;;8.38;100.00;62860.13;5021366;28;20226;-73
2023/05/10 00:33:43;;;;;;;8.05;7.35;;;;;;;8.48;100.00;62870.44;5023937;28;20436;-74
2023/05/10 00:36:10;;;;;;;8.40;7.38;;;;;;;8.46;100.00;62870.91;5022464;28;20571;-74
2023/05/10 00:38:39;;;;;;;7.88;7.10;;;;;;;8.40;100.00;62864.72;5021681;28;20362;-73
2023/05/10 00:41:06;;;;;;;7.85;7.07;;;;;;;8.39;100.00;62858.63;5023953;28;20215;-74
2023/05/10 00:43:33;;;;;;;7.60;6.90;;;;;;;8.42;100.00;62866.28;5023468;28;20255;-74
2023/05/10 00:46:00;;;;;;;7.78;7.07;;;;;;;8.41;100.00;62860.69;5023128;28;20214;-73
2023/05/10 00:48:29;;;;;;;7.70;6.95;;;;;;;8.29;100.00;62850.31;5021863;28;20234;-74
2023/05/10 00:50:56;;;;;;;8.07;7.28;;;;;;;8.32;100.00;62855.97;5024204;28;20207;-74
2023/05/10 00:53:23;;;;;;;8.75;7.95;;;;;;;8.37;100.00;62861.63;5025171;28;20384;-73
2023/05/10 00:55:53;;;;;;;9.35;7.68;;;;;;;8.43;100.00;62867.81;5022355;28;20238;-74
2023/05/10 00:58:20;;;;;;;9.07;7.70;;;;;;;8.36;100.00;62858.06;5021455;28;20221;-73
2023/05/10 01:00:48;;;;;;;7.60;6.90;;;;;;;8.35;100.00;62853.97;5025407;28;20210;-74
2023/05/10 01:03:15;;;;;;;8.55;7.65;;;;;;;8.42;100.00;62866.28;5020040;28;20519;-74
2023/05/10 01:05:42;;;;;;;9.57;7.07;;;;;;;8.39;100.00;62858.63;5025948;28;20198;-73
2023/05/10 01:08:09;;;;;;;7.75;7.05;;;;;;;8.49;100.00;62873.50;5029040;28;20223;-74
2023/05/10 01:10:36;;;;;;;8.55;7.40;;;;;;;8.39;100.00;62863.69;5025317;28;20213;-74
2023/05/10 01:13:05;;;;;;;7.72;6.93;;;;;;;8.31;100.00;62852.38;5026738;28;20562;-73
2023/05/10 01:15:32;;;;;;;7.78;6.95;;;;;;;8.27;100.00;62851.28;5027121;28;20195;-72
2023/05/10 01:18:01;;;;;;;8.18;7.40;;;;;;;8.27;100.00;62851.28;5028314;28;20240;-74
2023/05/10 01:20:36;;;;;;;9.85;6.78;;;;;;;8.32;100.00;62861.53;5027549;28;20221;-73
2023/05/10 01:23:19;;;;;;;8.38;7.57;;;;;;;8.21;100.00;62843.06;5023043;28;20292;-74
2023/05/10 01:26:22;;;;;;;8.48;7.57;;;;;;;8.29;100.00;62855.91;5025218;28;20225;-73
2023/05/10 01:29:19;;;;;;;7.80;7.10;;;;;;;8.27;100.00;62850.78;5014510;28;20198;-75
2023/05/10 01:32:22;;;;;;;8.25;7.32;;;;;;;8.19;100.00;62841.00;5024105;28;20438;-73
2023/05/10 01:34:57;;;;;;;7.30;6.60;;;;;;;8.28;100.00;62849.28;5019002;28;20225;-74
2023/05/10 01:37:35;;;;;;;6.75;6.10;;;;;;;8.16;100.00;62837.88;5027251;28;20230;-74
2023/05/10 01:40:09;;;;;;;6.90;5.85;;;;;;;7.85;100.00;62805.88;5023183;28;20269;-75
2023/05/10 01:42:42;;;;;;;6.20;5.70;;;;;;;8.31;100.00;62849.84;5027386;28;20237;-73
2023/05/10 01:45:19;;;;;;;6.88;5.50;;;;;;;8.32;100.00;62859.00;5017745;28;20214;-75
2023/05/10 01:47:54;;;;;;;5.55;5.05;;;;;;;8.39;100.00;62858.63;5026910;28;20240;-75
2023/05/10 01:50:28;;;;;;;4.90;4.60;;;;;;;8.36;100.00;62858.06;5021385;28;20198;-72
2023/05/10 01:52:58;;;;;;;5.65;4.80;;;;;;;8.33;100.00;62854.44;5028052;28;20248;-73
2023/05/10 01:55:29;;;;;;;5.00;4.60;;;;;;;8.27;100.00;62851.28;5024233;28;20274;-74
2023/05/10 01:58:03;;;;;;;5.20;4.80;;;;;;;8.32;100.00;62853.91;5019310;28;20231;-74
2023/05/10 02:00:32;;;;;;;5.65;5.00;;;;;;;8.26;100.00;62852.81;5021881;28;20202;-75
2023/05/10 02:03:03;;;;;;;4.65;4.35;;;;;;;8.23;100.00;62849.69;5024116;28;20254;-73
2023/05/10 02:05:33;;;;;;;5.22;4.80;;;;;;;8.13;100.00;62836.81;5027203;28;20219;-74
2023/05/10 02:08:02;;;;;;;4.13;3.92;;;;;;;8.16;100.00;62839.94;5010323;28;20227;-71
2023/05/10 02:10:30;;;;;;;4.32;3.92;;;;;;;8.15;100.00;62834.34;5021675;28;20205;-74
2023/05/10 02:13:00;;;;;;;5.28;4.88;;;;;;;8.17;100.00;62838.41;5026355;28;20257;-73
2023/05/10 02:15:29;;;;;;;4.63;4.32;;;;;;;8.24;100.00;62845.66;5023610;28;20204;-74
2023/05/10 02:17:57;;;;;;;5.68;5.18;;;;;;;8.20;100.00;62841.50;5024959;28;20254;-72
2023/05/10 02:20:28;;;;;;;5.20;4.80;;;;;;;8.21;100.00;62845.59;5028154;28;20195;-73
2023/05/10 02:22:57;;;;;;;5.18;4.78;;;;;;;8.29;100.00;62848.28;5026557;28;20276;-74
2023/05/10 02:25:25;;;;;;;6.78;5.45;;;;;;;8.32;100.00;62858.50;5016885;28;20234;-73
2023/05/10 02:27:56;;;;;;;5.50;5.10;;;;;;;8.17;100.00;62841.47;5027555;28;20458;-74
2023/05/10 02:30:24;;;;;;;6.10;5.57;;;;;;;8.11;100.00;62835.25;5025260;28;20191;-75
2023/05/10 02:32:53;;;;;;;5.60;5.13;;;;;;;8.01;100.00;62819.88;5026297;28;20282;-73
2023/05/10 02:35:20;;;;;;;6.28;5.70;;;;;;;7.96;100.00;62816.72;5020441;28;20198;-73
2023/05/10 02:37:51;;;;;;;5.97;5.50;;;;;;;7.77;100.00;62799.63;5025447;28;20245;-72
2023/05/10 02:40:20;;;;;;;5.38;4.97;;;;;;;7.60;100.00;62777.03;5027416;28;20222;-74
2023/05/10 02:42:51;;;;;;;5.00;4.60;;;;;;;7.60;100.00;62782.63;5021201;28;20269;-74
2023/05/10 02:45:21;;;;;;;5.05;4.60;;;;;;;7.59;100.00;62778.53;5018798;28;20223;-74
2023/05/10 02:47:48;;;;;;;5.72;5.22;;;;;;;7.61;100.00;62781.09;5022701;28;20289;-73
2023/05/10 02:50:16;;;;;;;8.48;5.68;;;;;;;7.72;100.00;62791.94;5025738;28;20380;-74
2023/05/10 02:52:48;;;;;;;6.00;5.50;;;;;;;7.60;100.00;62782.09;5023506;28;20234;-75
2023/05/10 02:55:20;;;;;;;7.88;6.15;;;;;;;7.57;100.00;62779.53;5025227;28;20275;-74
2023/05/10 02:57:59;;;;;;;5.28;4.88;;;;;;;7.47;100.00;62766.66;5006137;28;20231;-74
2023/05/10 03:00:27;;;;;;;5.95;4.72;;;;;;;7.33;100.00;62757.28;5020067;28;20203;-74
2023/05/10 03:02:55;;;;;;;5.57;5.07;;;;;;;7.21;100.00;62744.38;5024714;28;20238;-75
2023/05/10 03:05:23;;;;;;;5.65;5.05;;;;;;;7.09;100.00;62727.47;5025012;28;20205;-73
2023/05/10 03:07:51;;;;;;;5.80;5.30;;;;;;;7.13;100.00;62733.59;5026304;28;20222;-73
2023/05/10 03:10:20;;;;;;;5.72;5.28;;;;;;;7.29;100.00;62750.09;5023829;28;20551;-73
2023/05/10 03:13:00;;;;;;;6.05;5.50;;;;;;;7.18;100.00;62739.25;5023074;28;20238;-74
2023/05/10 03:15:44;;;;;;;6.30;5.18;;;;;;;7.35;100.00;62756.81;5026378;28;20213;-75
2023/05/10 03:18:13;;;;;;;6.07;5.32;;;;;;;7.38;100.00;62757.38;5023871;28;20281;-74
2023/05/10 03:20:44;;;;;;;5.57;5.07;;;;;;;7.35;100.00;62756.31;5023988;28;20241;-73
2023/05/10 03:23:18;;;;;;;5.25;4.75;;;;;;;7.32;100.00;62753.72;5024972;28;20297;-72
2023/05/10 03:25:49;;;;;;;5.25;4.85;;;;;;;7.27;100.00;62748.56;5025498;28;20198;-73
2023/05/10 03:28:21;;;;;;;5.10;4.70;;;;;;;7.23;100.00;62743.91;5014517;28;20222;-74
2023/05/10 03:30:50;;;;;;;5.63;5.22;;;;;;;7.20;100.00;62738.28;5023944;28;20226;-75
2023/05/10 03:33:17;;;;;;;5.85;5.35;;;;;;;7.30;100.00;62754.19;5027081;28;20246;-75
2023/05/10 03:35:45;;;;;;;5.82;5.32;;;;;;;7.30;100.00;62748.59;5022765;28;20346;-74
2023/05/10 03:38:13;;;;;;;6.25;5.75;;;;;;;7.24;100.00;62739.88;5023866;28;20221;-74
2023/05/10 03:40:40;;;;;;;5.28;4.78;;;;;;;7.10;100.00;62733.03;5024524;28;20207;-75
2023/05/10 03:43:09;;;;;;;5.95;5.40;;;;;;;7.26;100.00;62739.41;5025155;28;20297;-75
2023/05/10 03:45:37;;;;;;;7.38;5.53;;;;;;;7.37;100.00;62753.31;5023123;28;20209;-76
2023/05/10 03:48:04;;;;;;;6.45;5.60;;;;;;;7.35;100.00;62756.31;5022713;28;20250;-74
2023/05/10 03:50:31;;;;;;;8.52;6.45;;;;;;;7.34;100.00;62755.25;5023497;28;20241;-75
2023/05/10 03:52:58;;;;;;;12.38;7.88;;;;;;;7.23;100.00;62739.34;5024429;28;20531;-74
2023/05/10 03:55:26;;;;;;;7.40;6.80;;;;;;;7.27;100.00;62748.03;5022745;28;20385;-75
2023/05/10 03:57:53;;;;;;;11.27;6.60;;;;;;;7.29;100.00;62750.09;5024477;28;20229;-74
2023/05/10 04:00:22;;;;;;;9.18;6.18;;;;;;;7.17;100.00;62738.25;5025751;28;20223;-73
2023/05/10 04:02:49;;;;;;;6.82;5.97;;;;;;;7.19;100.00;62737.78;5021547;28;20235;-75
2023/05/10 04:05:16;;;;;;;9.10;6.90;;;;;;;7.22;100.00;62740.88;5008607;28;20199;-76
2023/05/10 04:07:44;;;;;;;7.05;6.38;;;;;;;7.21;100.00;62742.38;5021336;28;20242;-74
2023/05/10 04:10:12;;;;;;;7.05;6.35;;;;;;;7.21;100.00;62741.84;5024085;28;20263;-75
2023/05/10 04:12:39;;;;;;;6.88;6.00;;;;;;;7.35;100.00;62753.75;5016583;28;20234;-76
2023/05/10 04:15:07;;;;;;;8.75;6.93;;;;;;;7.35;100.00;62751.22;5022092;28;20205;-73
2023/05/10 04:17:37;;;;;;;14.60;8.15;;;;;;;7.37;100.00;62758.88;5019885;28;20246;-74
2023/05/10 04:20:05;;;;;;;15.18;8.55;;;;;;;7.45;100.00;62764.09;5018774;28;20276;-73
2023/05/10 04:22:33;;;;;;;18.05;9.60;;;;;;;7.48;100.00;62767.69;5018927;28;20229;-74
2023/05/10 04:25:00;;;;;;;13.18;8.98;;;;;;;7.54;100.00;62775.91;5021581;28;20503;-74
2023/05/10 04:27:27;;;;;;;16.55;10.65;;;;;;;7.57;100.00;62774.47;5020818;28;20573;-73
2023/05/10 04:29:54;;;;;;;21.90;11.40;;;;;;;7.56;100.00;62778.47;5023260;28;20198;-73
2023/05/10 04:32:21;;;;;;;23.05;12.60;;;;;;;7.69;100.00;62791.91;5016781;28;20244;-72
2023/05/10 04:34:52;;;;;;;25.10;12.45;;;;;;;7.43;100.00;62762.03;5026391;28;20206;-72
2023/05/10 04:37:19;;;;;;;9.55;7.90;;;;;;;7.51;100.00;62767.72;5028240;28;20218;-72
2023/05/10 04:39:47;;;;;;;7.47;6.78;;;;;;;7.47;100.00;62766.66;5026107;28;20374;-74
2023/05/10 04:42:15;;;;;;;15.07;9.45;;;;;;;7.56;100.00;62775.94;5023185;28;20221;-73
2023/05/10 04:44:42;;;;;;;16.17;9.63;;;;;;;7.63;100.00;62785.72;5026211;28;20238;-73
2023/05/10 04:47:09;;;;;;;20.30;10.43;;;;;;;7.63;100.00;62785.72;5023752;28;20290;-73
2023/05/10 04:49:36;;;;;;;16.63;8.07;;;;;;;7.77;100.00;62797.09;5026712;28;20285;-73
2023/05/10 04:52:05;;;;;;;12.80;8.50;;;;;;;7.83;100.00;62806.38;5025872;28;20242;-74
2023/05/10 04:54:32;;;;;;;10.43;8.20;;;;;;;7.78;100.00;62801.19;5027279;28;20190;-74
2023/05/10 04:56:59;;;;;;;7.20;6.60;;;;;;;7.78;100.00;62803.72;5027584;28;20285;-72
2023/05/10 04:59:27;;;;;;;6.63;6.13;;;;;;;7.67;100.00;62787.31;5021720;28;20212;-73
2023/05/10 05:01:54;;;;;;;8.35;6.63;;;;;;;7.74;100.00;62794.00;5008031;28;20219;-74
2023/05/10 05:04:23;;;;;;;7.22;6.45;;;;;;;7.75;100.00;62793.03;5007810;28;20242;-72
2023/05/10 05:06:50;;;;;;;6.47;5.85;;;;;;;7.89;100.00;62812.03;5007386;28;20223;-72
2023/05/10 05:09:18;;;;;;;5.25;4.90;;;;;;;7.94;100.00;62817.72;5023717;28;20407;-73
2023/05/10 05:11:45;;;;;;;7.47;6.75;;;;;;;7.88;100.00;62809.00;5026325;28;20223;-73
2023/05/10 05:14:12;;;;;;;6.00;5.45;;;;;;;7.87;100.00;62809.97;5027549;28;20301;-72
2023/05/10 05:16:40;;;;;;;7.47;6.38;;;;;;;7.99;100.00;62817.28;5026367;28;20231;-73
2023/05/10 05:19:07;;;;;;;6.20;5.63;;;;;;;7.96;100.00;62814.72;5027154;28;20198;-72
2023/05/10 05:21:34;;;;;;;6.28;5.78;;;;;;;7.89;100.00;62812.56;5027510;28;20218;-73
2023/05/10 05:24:01;;;;;;;7.82;7.05;;;;;;;7.92;100.00;62812.59;5026816;28;20257;-74
2023/05/10 05:26:30;;;;;;;7.13;5.40;;;;;;;7.84;100.00;62806.88;5025242;28;20223;-74
2023/05/10 05:28:57;;;;;;;7.93;6.60;;;;;;;7.83;100.00;62803.84;5027393;28;20194;-73
2023/05/10 05:31:24;;;;;;;11.15;6.68;;;;;;;7.95;100.00;62818.22;5025434;28;20231;-72
2023/05/10 05:33:51;;;;;;;7.57;6.80;;;;;;;7.90;100.00;62813.06;5025906;28;20195;-72
2023/05/10 05:36:19;;;;;;;8.50;6.47;;;;;;;7.98;100.00;62819.31;5022712;28;20527;-72
2023/05/10 05:38:46;;;;;;;7.13;6.47;;;;;;;7.98;100.00;62821.84;5026615;28;20198;-72
2023/05/10 05:41:13;;;;;;;8.93;7.63;;;;;;;8.04;100.00;62827.53;5026163;28;20194;-73
2023/05/10 05:43:41;;;;;;;10.80;8.52;;;;;;;7.98;100.00;62821.31;5026001;28;20342;-72
2023/05/10 05:46:08;;;;;;;8.63;7.40;;;;;;;7.93;100.00;62811.63;5026067;28;20203;-73
2023/05/10 05:48:36;;;;;;;8.38;7.57;;;;;;;7.94;100.00;62815.19;5025652;28;20195;-72
2023/05/10 05:51:03;;;;;;;8.65;7.15;;;;;;;7.90;100.00;62813.06;5026470;28;20198;-73
2023/05/10 05:53:30;;;;;;;9.27;7.65;;;;;;;7.91;100.00;62812.09;5024698;28;20253;-72
2023/05/10 05:55:58;;;;;;;10.82;7.85;;;;;;;7.95;100.00;62818.22;5026143;28;20522;-73
2023/05/10 05:58:26;;;;;;;8.02;7.22;;;;;;;7.82;100.00;62802.25;5026068;28;20195;-72
2023/05/10 06:00:55;;;;;;;9.70;7.50;;;;;;;7.91;100.00;62812.09;5025382;28;20202;-72
2023/05/10 06:03:22;;;;;;;8.77;7.45;;;;;;;7.81;100.00;62803.78;5024831;28;20558;-72
2023/05/10 06:05:49;;;;;;;13.25;7.65;;;;;;;7.64;100.00;62791.28;5025866;28;20391;-72
2023/05/10 06:08:16;;;;;;;12.00;8.55;;;;;;;7.72;100.00;62794.47;5025362;28;20221;-74
2023/05/10 06:10:44;;;;;;;12.88;8.55;;;;;;;7.77;100.00;62797.09;5024936;28;20231;-73
2023/05/10 06:13:11;;;;;;;10.43;8.93;;;;;;;7.89;100.00;62812.03;5022310;28;20226;-72
2023/05/10 06:15:38;;;;;;;10.25;8.07;;;;;;;7.89;100.00;62812.03;5025578;28;20191;-73
2023/05/10 06:18:07;;;;;;;10.18;7.80;;;;;;;7.85;100.00;62808.41;5025018;28;20221;-74
2023/05/10 06:20:34;;;;;;;12.02;8.82;;;;;;;7.95;100.00;62818.75;5023970;28;20219;-73
2023/05/10 06:23:01;;;;;;;10.85;9.40;;;;;;;8.08;100.00;62829.13;5022885;28;20215;-72
2023/05/10 06:25:28;;;;;;;11.23;9.63;;;;;;;8.01;100.00;62827.47;5025710;28;20508;-74
2023/05/10 06:27:58;;;;;;;12.00;9.18;;;;;;;8.13;100.00;62842.41;5019555;28;20530;-73
2023/05/10 06:30:28;;;;;;;11.75;9.82;;;;;;;8.16;100.00;62839.94;5026433;28;20208;-73
2023/05/10 06:32:56;;;;;;;13.32;9.23;;;;;;;8.15;100.00;62838.88;5025330;28;20225;-73
2023/05/10 06:35:24;;;;;;;13.90;10.15;;;;;;;8.18;100.00;62841.97;5021250;28;20534;-73
2023/05/10 06:37:52;;;;;;;14.18;10.15;;;;;;;8.21;100.00;62842.56;5022968;28;20539;-73
2023/05/10 06:40:20;;;;;;;12.63;9.20;;;;;;;8.26;100.00;62852.28;5026137;28;20203;-73
2023/05/10 06:42:47;;;;;;;11.27;9.45;;;;;;;8.17;100.00;62835.88;5022155;28;20222;-73
2023/05/10 06:45:15;;;;;;;10.88;9.20;;;;;;;8.24;100.00;62845.16;5022916;28;20295;-74
2023/05/10 06:47:42;;;;;;;14.63;10.18;;;;;;;8.30;100.00;62849.31;5024861;28;20218;-73
2023/05/10 06:50:09;;;;;;;11.57;9.50;;;;;;;8.25;100.00;62848.72;5023437;28;20203;-72
2023/05/10 06:52:39;;;;;;;11.07;9.75;;;;;;;8.34;100.00;62860.53;5020499;28;20237;-73
2023/05/10 06:55:06;;;;;;;11.85;9.10;;;;;;;8.43;100.00;62867.31;5017131;28;20202;-73
2023/05/10 06:57:33;;;;;;;13.82;9.32;;;;;;;8.50;100.00;62872.00;5020870;28;20226;-74
2023/05/10 07:00:00;;;;;;;12.02;9.77;;;;;;;8.54;100.00;62881.72;5022264;28;20226;-72
2023/05/10 07:02:28;;;;;;;12.73;9.43;;;;;;;8.42;100.00;62866.78;5024614;28;20250;-73
2023/05/10 07:04:55;;;;;;;18.15;12.07;;;;;;;8.49;100.00;62873.50;5023683;28;20302;-75
2023/05/10 07:07:22;;;;;;;20.25;12.30;;;;;;;8.50;100.00;62875.06;5018682;28;20441;-72
2023/05/10 07:09:51;;;;;;;18.23;11.10;;;;;;;8.35;100.00;62857.03;5024574;28;20211;-73
2023/05/10 07:12:17;;;;;;;14.13;10.88;;;;;;;8.33;100.00;62856.97;5024469;28;20535;-72
2023/05/10 07:14:45;;;;;;;13.00;9.90;;;;;;;8.23;100.00;62847.16;5024013;28;20515;-72
2023/05/10 07:17:12;;;;;;;22.88;13.02;;;;;;;8.30;100.00;62851.84;5025355;28;20218;-73
2023/05/10 07:19:39;;;;;;;13.25;10.98;;;;;;;8.29;100.00;62853.38;5024929;28;20199;-72
2023/05/10 07:22:06;;;;;;;11.57;9.88;;;;;;;8.37;100.00;62861.63;5024884;28;20445;-72
2023/05/10 07:24:33;;;;;;;10.10;8.77;;;;;;;8.12;100.00;62831.25;5022064;28;20300;-71
2023/05/10 07:27:02;;;;;;;12.02;9.48;;;;;;;8.16;100.00;62837.38;5025281;28;20276;-72
2023/05/10 07:29:29;;;;;;;11.15;9.70;;;;;;;8.22;100.00;62846.13;5025510;28;20206;-73
2023/05/10 07:31:56;;;;;;;11.57;9.15;;;;;;;8.15;100.00;62838.88;5022516;28;20447;-72
2023/05/10 07:34:23;;;;;;;12.10;9.27;;;;;;;8.29;100.00;62850.31;5024662;28;20514;-71
2023/05/10 07:36:53;;;;;;;10.57;8.60;;;;;;;8.33;100.00;62854.44;5020572;28;20222;-73
2023/05/10 07:39:20;;;;;;;11.75;9.07;;;;;;;8.27;100.00;62848.75;5022113;28;20313;-72
2023/05/10 07:41:47;;;;;;;10.82;9.48;;;;;;;8.12;100.00;62838.84;5025422;28;20490;-72
2023/05/10 07:44:18;;;;;;;12.55;9.20;;;;;;;8.03;100.00;62827.00;5024045;28;20240;-71
2023/05/10 07:46:45;;;;;;;12.10;10.43;;;;;;;7.93;100.00;62819.22;5022269;28;20226;-72
2023/05/10 07:49:12;;;;;;;15.88;10.40;;;;;;;8.02;100.00;62823.44;5024453;28;20205;-73
2023/05/10 07:51:39;;;;;;;13.63;10.80;;;;;;;7.98;100.00;62821.84;5023896;28;20519;-74
2023/05/10 07:54:07;;;;;;;14.40;11.43;;;;;;;8.02;100.00;62828.00;5023637;28;20256;-72
2023/05/10 07:56:34;;;;;;;11.90;10.48;;;;;;;8.14;100.00;62833.28;5023664;28;20226;-73
2023/05/10 07:59:03;;;;;;;14.50;10.52;;;;;;;8.31;100.00;62854.91;5024021;28;20245;-73
2023/05/10 08:01:32;;;;;;;15.82;11.85;;;;;;;8.49;100.00;62876.56;5023732;28;20535;-72
2023/05/10 08:04:01;;;;;;;11.98;10.07;;;;;;;8.63;100.00;62891.03;5023141;28;20226;-73
2023/05/10 08:06:29;;;;;;;12.40;9.48;;;;;;;8.58;100.00;62880.25;5023808;28;20285;-72
2023/05/10 08:08:57;;;;;;;12.48;9.60;;;;;;;8.53;100.00;62878.16;5023790;28;20242;-73
2023/05/10 08:11:24;;;;;;;10.35;9.25;;;;;;;8.58;100.00;62883.31;5021753;28;20463;-74
2023/05/10 08:13:51;;;;;;;12.68;10.30;;;;;;;8.67;100.00;62887.53;5019206;28;20245;-72
2023/05/10 08:16:19;;;;;;;12.60;10.27;;;;;;;8.52;100.00;62877.13;5021334;28;20438;-73
2023/05/10 08:18:49;;;;;;;16.23;10.32;;;;;;;8.46;100.00;62870.41;5021601;28;20210;-72
2023/05/10 08:21:16;;;;;;;11.23;10.02;;;;;;;8.53;100.00;62878.16;5023979;28;20214;-72
2023/05/10 08:23:43;;;;;;;13.38;10.05;;;;;;;8.55;100.00;62879.69;5023156;28;20228;-72
2023/05/10 08:26:10;;;;;;;11.88;9.93;;;;;;;8.63;100.00;62891.03;5023088;28;20210;-72
2023/05/10 08:28:37;;;;;;;12.85;10.85;;;;;;;8.63;100.00;62890.53;5025093;28;20384;-72
2023/05/10 08:31:06;;;;;;;13.55;10.70;;;;;;;8.74;100.00;62899.34;5024059;28;20213;-73
2023/05/10 08:33:33;;;;;;;13.25;10.07;;;;;;;8.73;100.00;62898.31;5024334;28;20209;-72
2023/05/10 08:36:01;;;;;;;9.90;8.90;;;;;;;8.86;100.00;62911.72;5022429;28;20211;-73
2023/05/10 08:38:28;;;;;;;10.38;9.25;;;;;;;8.77;100.00;62902.94;5023500;28;20502;-72
2023/05/10 08:40:58;;;;;;;10.55;9.10;;;;;;;8.86;100.00;62909.19;5023870;28;20241;-73
2023/05/10 08:43:28;;;;;;;13.07;9.35;;;;;;;8.93;100.00;62916.44;5023648;28;20210;-72
2023/05/10 08:45:56;;;;;;;12.25;8.80;;;;;;;8.96;100.00;62922.59;5022907;28;20234;-71
2023/05/10 08:48:25;;;;;;;9.57;8.60;;;;;;;8.97;100.00;62928.19;5023443;28;20579;-73
2023/05/10 08:50:55;;;;;;;10.85;9.20;;;;;;;9.08;100.00;62932.44;5024381;28;20442;-72
2023/05/10 08:53:27;;;;;;;11.80;9.55;;;;;;;9.21;100.00;62943.34;5022242;28;20199;-72
2023/05/10 08:55:54;;;;;;;9.48;8.48;;;;;;;9.35;100.00;62965.44;5023403;28;20203;-72
2023/05/10 08:58:21;;;;;;;9.25;8.27;;;;;;;9.21;100.00;62948.41;5025758;28;20199;-72
2023/05/10 09:00:51;;;;;;;9.77;8.77;;;;;;;9.13;100.00;62942.19;5023260;28;20499;-72
2023/05/10 09:03:19;;;;;;;15.90;9.73;;;;;;;9.24;100.00;62953.56;5021395;28;20229;-72
2023/05/10 09:05:47;;;;;;;10.13;8.60;;;;;;;9.33;100.00;62960.84;5024222;28;20226;-72
2023/05/10 09:08:16;;;;;;;13.20;9.63;;;;;;;9.17;100.00;62948.84;5023388;28;20241;-72
2023/05/10 09:10:47;;;;;;;18.25;10.90;;;;;;;9.25;100.00;62952.03;5021928;28;20222;-70
2023/05/10 09:13:15;;;;;;;10.27;9.27;;;;;;;9.34;100.00;62961.88;5015668;28;20226;-70
2023/05/10 09:15:43;;;;;;;13.80;9.50;;;;;;;9.35;100.00;62962.41;5017792;28;20378;-74
2023/05/10 09:18:13;;;;;;;9.55;8.55;;;;;;;9.48;100.00;62970.22;5022745;28;20238;-73
2023/05/10 09:20:40;;;;;;;13.40;10.18;;;;;;;9.50;100.00;62980.44;5024468;28;20261;-72
2023/05/10 09:23:07;;;;;;;12.32;9.70;;;;;;;9.41;100.00;62971.13;5026998;28;20218;-72
2023/05/10 09:25:35;;;;;;;11.00;9.82;;;;;;;9.35;100.00;62962.41;5022849;28;20539;-72
2023/05/10 09:28:07;;;;;;;14.07;9.85;;;;;;;9.34;100.00;62961.34;5026040;28;20219;-73
2023/05/10 09:30:34;;;;;;;13.02;10.57;;;;;;;9.58;100.00;62986.16;5025740;28;20206;-73
2023/05/10 09:33:02;;;;;;;17.05;10.70;;;;;;;9.56;100.00;62981.56;5030119;28;20233;-72
2023/05/10 09:35:31;;;;;;;10.73;8.65;;;;;;;9.74;100.00;63002.72;5026542;28;20194;-73
2023/05/10 09:38:00;;;;;;;14.88;9.70;;;;;;;9.80;100.00;63008.91;5025920;28;20214;-74
2023/05/10 09:40:31;;;;;;;9.93;8.85;;;;;;;9.95;100.00;63023.91;5026857;28;20206;-73
2023/05/10 09:43:00;;;;;;;13.20;9.88;;;;;;;9.97;100.00;63023.97;5026319;28;20218;-72
2023/05/10 09:45:32;;;;;;;11.70;9.40;;;;;;;10.11;100.00;63038.47;5027115;28;20245;-72
2023/05/10 09:48:01;;;;;;;10.45;9.40;;;;;;;10.20;100.00;63047.25;5026397;28;20466;-73
2023/05/10 09:50:29;;;;;;;10.75;9.25;;;;;;;10.14;100.00;63038.50;5026229;28;20218;-72
2023/05/10 09:52:58;;;;;;;10.13;9.13;;;;;;;10.20;100.00;63047.78;5022431;28;20246;-73
2023/05/10 09:55:27;;;;;;;10.82;8.88;;;;;;;10.24;100.00;63053.94;5025586;28;20489;-73
2023/05/10 09:58:00;;;;;;;12.27;10.07;;;;;;;10.13;100.00;63043.06;5020910;28;20290;-71
2023/05/10 10:00:35;;;;;;;11.80;8.55;;;;;;;10.11;100.00;63045.59;5023952;28;20199;-73
2023/05/10 10:03:04;;;;;;;10.93;9.80;;;;;;;9.88;100.00;63019.75;5023094;28;20272;-73
2023/05/10 10:05:31;;;;;;;12.70;10.93;;;;;;;9.81;100.00;63009.97;5024557;28;20234;-72
2023/05/10 10:07:59;;;;;;;10.80;9.77;;;;;;;9.88;100.00;63017.19;5026592;28;20233;-73
2023/05/10 10:10:27;;;;;;;10.30;9.30;;;;;;;9.89;100.00;63015.16;5023846;28;20206;-73
2023/05/10 10:12:56;;;;;;;9.73;8.82;;;;;;;9.51;100.00;62978.41;5025602;28;20230;-72
2023/05/10 10:15:23;;;;;;;11.70;9.95;;;;;;;9.71;100.00;63002.16;5027240;28;20445;-74
2023/05/10 10:17:53;;;;;;;11.45;10.27;;;;;;;9.91;100.00;63017.22;5025947;28;20218;-73
2023/05/10 10:20:22;;;;;;;9.73;8.80;;;;;;;10.02;100.00;63031.16;5025142;28;20241;-73
2023/05/10 10:22:51;;;;;;;13.55;10.85;;;;;;;10.04;100.00;63033.75;5025568;28;20222;-75
2023/05/10 10:25:19;;;;;;;10.95;9.85;;;;;;;10.11;100.00;63035.41;5025804;28;20234;-74
2023/05/10 10:27:58;;;;;;;10.70;9.52;;;;;;;10.16;100.00;63046.16;5023694;28;20219;-73
2023/05/10 10:30:32;;;;;;;10.70;9.57;;;;;;;10.22;100.00;63046.78;5026054;28;20206;-74
2023/05/10 10:33:25;;;;;;;12.13;9.65;;;;;;;10.24;100.00;63053.94;5025805;28;20495;-73
2023/05/10 10:35:54;;;;;;;11.00;9.88;;;;;;;10.41;100.00;63071.53;5025642;28;20225;-72
2023/05/10 10:38:22;;;;;;;11.85;10.50;;;;;;;10.47;100.00;63080.28;5023919;28;20198;-72
2023/05/10 10:41:03;;;;;;;10.43;9.32;;;;;;;10.46;100.00;63074.69;5025751;28;20207;-73
2023/05/10 10:43:30;;;;;;;10.15;9.15;;;;;;;10.46;100.00;63077.22;5025512;28;20334;-72
2023/05/10 10:46:14;;;;;;;10.25;9.07;;;;;;;10.37;100.00;63070.44;5024568;28;20237;-74
2023/05/10 10:48:49;;;;;;;11.70;9.15;;;;;;;10.31;100.00;63064.25;5019293;28;20202;-73
2023/05/10 10:51:16;;;;;;;9.77;8.77;;;;;;;10.21;100.00;63045.75;5025255;28;20273;-74
2023/05/10 10:53:44;;;;;;;10.50;9.40;;;;;;;10.20;100.00;63049.78;5025693;28;20198;-73
2023/05/10 10:56:14;;;;;;;11.48;8.32;;;;;;;10.05;100.00;63031.72;5023136;28;20203;-72
2023/05/10 10:58:42;;;;;;;9.45;8.35;;;;;;;10.16;100.00;63043.63;5022650;28;20488;-72
2023/05/10 11:01:14;;;;;;;9.20;8.18;;;;;;;10.01;100.00;63030.13;5025925;28;20198;-73
2023/05/10 11:04:16;;;;;;;8.80;7.90;;;;;;;10.16;100.00;63048.72;5024928;28;20409;-73
2023/05/10 11:06:43;;;;;;;10.40;8.52;;;;;;;10.16;100.00;63045.66;5007988;28;20468;-73
2023/05/10 11:09:12;;;;;;;10.35;8.40;;;;;;;10.24;100.00;63049.38;5004902;28;20512;-73
2023/05/10 11:11:50;;;;;;;10.48;9.13;;;;;;;10.32;100.00;63059.66;5005179;28;20227;-73
2023/05/10 11:14:22;;;;;;;8.75;8.05;;;;;;;10.53;100.00;63083.44;5014422;28;20495;-73
2023/05/10 11:16:49;;;;;;;9.48;8.48;;;;;;;10.53;100.00;63086.00;5025512;28;20237;-73
2023/05/10 11:19:18;;;;;;;8.23;7.53;;;;;;;10.55;100.00;63083.47;5024636;28;20199;-73
2023/05/10 11:21:47;;;;;;;12.30;7.90;;;;;;;10.64;100.00;63095.34;5025831;28;20409;-74
2023/05/10 11:24:16;;;;;;;9.23;7.97;;;;;;;10.66;100.00;63096.88;5022899;28;20270;-73
2023/05/10 11:26:44;;;;;;;9.38;7.63;;;;;;;10.72;100.00;63098.00;5025355;28;20241;-72
2023/05/10 11:29:11;;;;;;;8.70;7.90;;;;;;;10.67;100.00;63095.38;5025213;28;20430;-73
2023/05/10 11:31:45;;;;;;;8.18;7.38;;;;;;;10.76;100.00;63107.75;5022296;28;20249;-74
2023/05/10 11:34:14;;;;;;;10.25;8.07;;;;;;;10.80;100.00;63113.94;5023376;28;20199;-72
2023/05/10 11:36:42;;;;;;;8.45;7.63;;;;;;;10.53;100.00;63086.50;5023793;28;20226;-73